METAR Analyzer

一覧表示

Hello, Guest. (Login)

RJOA/HIJ  -  広島

観測日時
2022-09-30 06:00 (UTC) (43分前)
気温
27
露点
15
湿数
12
相対湿度
47.8%
QNH
1015.2hPa
推定現地気圧
976.0hPa
推定海面気圧
1013.3hPa
体感温度
21.2
(無風時)
24.4
HI
27.3
気温前日比
+5
体感温度前日比
+2.7
HI前日比
+5.1
水平視程
>10000m
鉛直視程
データなし
雲底高度
No dense clouds
V/I
VMC (VFR)
RVR
No RVR data
卓越風
4kt from 130° (80° ~ 200°)
ガスト
No gust
降水
報告なし
その他の天気
報告なし
少しの(1/8) 積雲 @ 3000ft AGL

RJOA 300600Z 13004KT 080V200 9999 FEW030 27/15 Q1015 RMK 1CU030 A2998

RJOB/OKJ  -  岡山

観測日時
2022-09-30 06:00 (UTC) (43分前)
気温
27
露点
16
湿数
11
相対湿度
51%
QNH
1014.9hPa
推定現地気圧
986.5hPa
推定海面気圧
1013.6hPa
体感温度
21.8
(無風時)
24.7
HI
27.5
気温前日比
+4
体感温度前日比
+4.4
HI前日比
+4.3
水平視程
>10000m
鉛直視程
データなし
雲底高度
No dense clouds
V/I
VMC (VFR)
RVR
No RVR data
卓越風
3kt from VRB
ガスト
No gust
降水
報告なし
その他の天気
報告なし
少しの(1/8) 積雲 @ 2000ft AGL

RJOB 300600Z VRB03KT 9999 FEW020 27/16 Q1014 RMK 1CU020 A2997

RJOR/TTJ  -  鳥取

観測日時
2022-09-30 06:00 (UTC) (43分前)
気温
24
露点
20
湿数
4
相対湿度
78.4%
QNH
1014.9hPa
推定現地気圧
1013.1hPa
推定海面気圧
1014.8hPa
体感温度
18.3
(無風時)
24.1
HI
24.5
気温前日比
±0
体感温度前日比
+0.7
HI前日比
+0.2
水平視程
>10000m
鉛直視程
データなし
雲底高度
No dense clouds
V/I
VMC (VFR)
RVR
No RVR data
卓越風
7kt from 20°
ガスト
No gust
降水
報告なし
その他の天気
報告なし
少しの(1/8) 積雲 @ 4000ft AGL

RJOR 300600Z 02007KT 9999 FEW040 24/20 Q1014 RMK 1CU040 A2997

RJOH/YGJ  -  米子(美保基地)

観測日時
2022-09-30 06:00 (UTC) (43分前)
気温
25
露点
19
湿数
6
相対湿度
69.4%
QNH
1014.2hPa
推定現地気圧
1013.7hPa
推定海面気圧
1014.2hPa
体感温度
18.3
(無風時)
24.4
HI
25.4
気温前日比
+1
体感温度前日比
+0.9
HI前日比
+1.1
水平視程
>10000m
鉛直視程
データなし
雲底高度
No dense clouds
V/I
VMC (VFR)
RVR
No RVR data
卓越風
11kt from 50°
ガスト
No gust
降水
報告なし
その他の天気
報告なし
少しの(1/8) 層積雲 @ 5000ft AGL

RJOH 300600Z 05011KT 9999 FEW050 25/19 Q1014 RMK 1SC050 A2995

RJOC/IZO  -  出雲

観測日時
2022-09-30 06:00 (UTC) (43分前)
気温
27
露点
11
湿数
16
相対湿度
36.8%
QNH
1013.9hPa
推定現地気圧
1013.7hPa
推定海面気圧
1013.9hPa
体感温度
19.6
(無風時)
23.7
HI
26.7
気温前日比
+1
体感温度前日比
+0.6
HI前日比
+0.5
水平視程
>10000m
鉛直視程
データなし
雲底高度
No dense clouds
V/I
VMC (VFR)
RVR
No RVR data
卓越風
8kt from 80°
ガスト
No gust
降水
報告なし
その他の天気
報告なし
少しの(1/8) 積雲 @ 3000ft AGL

RJOC 300600Z 08008KT 9999 FEW030 27/11 Q1014 RMK 1CU030 A2994

RJOW/IWJ  -  萩・石見

観測日時
2022-09-30 06:00 (UTC) (43分前)
気温
23
露点
20
湿数
3
相対湿度
83.2%
QNH
1014.6hPa
推定現地気圧
1008.1hPa
推定海面気圧
1014.4hPa
体感温度
18.5
(無風時)
23.5
HI
23.5
気温前日比
-1
体感温度前日比
-0.1
HI前日比
-0.8
水平視程
>10000m
鉛直視程
データなし
雲底高度
No dense clouds
V/I
VMC (VFR)
RVR
No RVR data
卓越風
4kt from 350° (290° ~ 40°)
ガスト
No gust
降水
報告なし
その他の天気
報告なし
少しの(1/8) 積雲 @ 1500ft AGL

RJOW 300600Z 35004KT 290V040 9999 FEW015 23/20 Q1014 RMK 1CU015 A2996

RJNO/OKI  -  隠岐

観測日時
2022-09-30 06:00 (UTC) (43分前)
気温
24
露点
18
湿数
6
相対湿度
69.2%
QNH
1015.2hPa
推定現地気圧
1005.6hPa
推定海面気圧
1014.9hPa
体感温度
18.6
(無風時)
23.6
HI
24.3
気温前日比
+1
体感温度前日比
+1.4
HI前日比
+1
水平視程
>10000m
鉛直視程
データなし
雲底高度
No dense clouds
V/I
VMC (VFR)
RVR
No RVR data
卓越風
5kt from 80°
ガスト
No gust
降水
報告なし
その他の天気
報告なし
少しの雲 @ 3000ft AGL

RJNO 300600Z 08005KT 9999 FEW030 24/18 Q1015 RMK A2998

RJDC/UBJ  -  山口宇部

観測日時
2022-09-30 06:00 (UTC) (43分前)
気温
27
露点
17
湿数
10
相対湿度
54.3%
QNH
1013.5hPa
推定現地気圧
1012.9hPa
推定海面気圧
1013.5hPa
体感温度
21.2
(無風時)
24.9
HI
27.7
気温前日比
+2
体感温度前日比
+0.8
HI前日比
+2.2
水平視程
>10000m
鉛直視程
データなし
雲底高度
No dense clouds
V/I
VMC (VFR)
RVR
No RVR data
卓越風
5kt from 240°
ガスト
No gust
降水
報告なし
その他の天気
報告なし
少しの(1/8) 積雲 @ 3000ft AGL

RJDC 300600Z 24005KT 9999 FEW030 27/17 Q1013 RMK 1CU030 A2993

RJOI/IWK  -  岩国空港(岩国基地)

観測日時
2022-09-30 05:56 (UTC) (47分前)
気温
27.2
露点
16.1
湿数
11.1
相対湿度
50.7%
QNH
1013.9hPa
推定現地気圧
1013.5hPa
推定海面気圧
1013.8hPa
体感温度
21
(無風時)
24.8
HI
27.7
気温前日比
+2.2
体感温度前日比
+1.2
HI前日比
+2.5
水平視程
>10000m
鉛直視程
データなし
雲底高度
No dense clouds
V/I
VMC (VFR)
RVR
No RVR data
卓越風
6kt from 160°
ガスト
No gust
降水
報告なし
その他の天気
報告なし
少しの雲 @ 3000ft AGL

RJOI 300556Z 16006KT 9999 FEW030 27/16 A2994 RMK AO2 SLP137 T02720161 10278 20233 56017

RJOF  -  防府北基地

観測日時
2022-09-30 06:00 (UTC) (43分前)
気温
27
露点
17
湿数
10
相対湿度
54.3%
QNH
1013.5hPa
推定現地気圧
1013.3hPa
推定海面気圧
1013.5hPa
体感温度
20.7
(無風時)
24.9
HI
27.7
気温前日比
+2
体感温度前日比
+0.7
HI前日比
+2.4
水平視程
>10000m
鉛直視程
データなし
雲底高度
No dense clouds
V/I
VMC (VFR)
RVR
No RVR data
卓越風
7kt from 200°
ガスト
No gust
降水
報告なし
その他の天気
報告なし
少しの(1/8) 積雲 @ 2500ft AGL

RJOF 300600Z 20007KT 9999 FEW025 27/17 Q1013 RMK 1CU025 A2993

RJOZ  -  小月航空基地

観測日時
2022-09-30 06:00 (UTC) (43分前)
気温
27
露点
19
湿数
8
相対湿度
61.6%
QNH
1013.9hPa
推定現地気圧
1013.4hPa
推定海面気圧
1013.9hPa
体感温度
21.4
(無風時)
25.4
HI
28.2
気温前日比
+2
体感温度前日比
+1.6
HI前日比
+2.8
水平視程
>10000m
鉛直視程
データなし
雲底高度
No dense clouds
V/I
VMC (VFR)
RVR
No RVR data
卓越風
6kt from 170°
ガスト
No gust
降水
報告なし
その他の天気
報告なし
少しの(1/8) 積雲 @ 2000ft AGL

RJOZ 300600Z 17006KT 9999 FEW020 27/19 Q1013 RMK 1CU020 A2994

RJOT/TAK  -  高松

観測日時
2022-09-30 06:00 (UTC) (43分前)
気温
26
露点
18
湿数
8
相対湿度
61.4%
QNH
1014.6hPa
推定現地気圧
992.5hPa
推定海面気圧
1013.6hPa
体感温度
20.2
(無風時)
24.6
HI
26.3
気温前日比
+3
体感温度前日比
+2.6
HI前日比
+3.4
水平視程
>10000m
鉛直視程
データなし
雲底高度
No dense clouds
V/I
VMC (VFR)
RVR
No RVR data
卓越風
6kt from 40° (20° ~ 80°)
ガスト
No gust
降水
報告なし
その他の天気
報告なし
少しの(1/8) 積雲 @ 3000ft AGL

RJOT 300600Z 04006KT 020V080 9999 FEW030 26/18 Q1014 RMK 1CU030 A2996

RJOM/MYJ  -  松山

観測日時
2022-09-30 06:00 (UTC) (43分前)
気温
27
露点
19
湿数
8
相対湿度
61.6%
QNH
1013.5hPa
推定現地気圧
1013.0hPa
推定海面気圧
1013.5hPa
体感温度
22
(無風時)
25.4
HI
28.2
気温前日比
+2
体感温度前日比
+2.9
HI前日比
+2.7
水平視程
>10000m
鉛直視程
データなし
雲底高度
No dense clouds
V/I
VMC (VFR)
RVR
No RVR data
卓越風
4kt from VRB
ガスト
No gust
降水
報告なし
その他の天気
報告なし
少しの(1/8) 積雲 @ 3000ft AGL

RJOM 300600Z VRB04KT 9999 FEW030 27/19 Q1013 RMK 1CU030 A2993

RJOK/KCZ  -  高知

観測日時
2022-09-30 06:00 (UTC) (43分前)
気温
27
露点
19
湿数
8
相対湿度
61.6%
QNH
1013hPa
推定現地気圧
1011.9hPa
推定海面気圧
1012.9hPa
体感温度
20.8
(無風時)
25.4
HI
28.2
気温前日比
+1
体感温度前日比
-1
HI前日比
+1.5
水平視程
>10000m
鉛直視程
データなし
雲底高度
No dense clouds
V/I
VMC (VFR)
RVR
No RVR data
卓越風
9kt from 200° (160° ~ 230°)
ガスト
No gust
降水
報告なし
その他の天気
報告なし
少しの雲 @ 3000ft AGL

RJOK 300600Z 20009KT 160V230 9999 FEW030 27/19 Q1013

RJOS/TKS  -  徳島

観測日時
2022-09-30 06:00 (UTC) (43分前)
気温
27
露点
18
湿数
9
相対湿度
57.9%
QNH
1013.9hPa
推定現地気圧
1012.6hPa
推定海面気圧
1013.9hPa
体感温度
20.9
(無風時)
25.1
HI
27.9
気温前日比
+2
体感温度前日比
+2.6
HI前日比
+2.7
水平視程
>10000m
鉛直視程
データなし
雲底高度
No dense clouds
V/I
VMC (VFR)
RVR
No RVR data
卓越風
7kt from 360° (290° ~ 30°)
ガスト
No gust
降水
報告なし
その他の天気
報告なし
少しの(1/8) 積雲 @ 3000ft AGL

RJOS 300600Z 36007KT 290V030 9999 FEW030 27/18 Q1013 RMK 1CU030 A2994

RJOP  -  小松島航空基地

観測日時
2022-09-30 06:00 (UTC) (43分前)
気温
26
露点
19
湿数
7
相対湿度
65.4%
QNH
1013.9hPa
推定現地気圧
1013.5hPa
推定海面気圧
1013.8hPa
体感温度
20.4
(無風時)
24.9
HI
26.4
気温前日比
+1
体感温度前日比
+2.4
HI前日比
+1.2
水平視程
>10000m
鉛直視程
データなし
雲底高度
No dense clouds
V/I
VMC (VFR)
RVR
No RVR data
卓越風
6kt from 30°
ガスト
No gust
降水
報告なし
その他の天気
報告なし
少しの(1/8) 積雲 @ 3000ft AGL

RJOP 300600Z 03006KT 9999 FEW030 26/19 Q1013 RMK 1CU030 A2994

98.8msec